createdAt,value
2018-12-22T00:03:57.124Z,7.47
2018-12-22T00:09:00.716Z,7.40
2018-12-22T00:14:03.560Z,5.60
2018-12-22T00:19:06.435Z,4.10
2018-12-22T00:24:10.068Z,4.20
2018-12-22T00:29:13.170Z,3.93
2018-12-22T00:34:15.853Z,4.00
2018-12-22T00:39:18.794Z,3.07
2018-12-22T00:44:21.621Z,3.77
2018-12-22T00:49:24.295Z,3.77
2018-12-22T00:54:27.295Z,2.23
2018-12-22T00:59:29.849Z,3.33
2018-12-22T01:04:32.758Z,2.10
2018-12-22T01:09:35.393Z,2.50
2018-12-22T01:14:38.375Z,1.70
2018-12-22T01:19:41.221Z,1.00
2018-12-22T01:24:44.596Z,1.07
2018-12-22T01:29:50.336Z,2.60
2018-12-22T01:34:55.247Z,0.77
2018-12-22T01:39:58.161Z,0.90
2018-12-22T01:45:01.249Z,0.67
2018-12-22T01:50:05.192Z,1.73
2018-12-22T01:55:08.077Z,0.57
2018-12-22T02:00:10.723Z,0.90
2018-12-22T02:05:13.878Z,0.93
2018-12-22T02:10:16.769Z,1.37
2018-12-22T02:15:19.478Z,1.10
2018-12-22T02:20:22.465Z,0.80
2018-12-22T02:25:26.198Z,0.60
2018-12-22T02:30:28.941Z,1.17
2018-12-22T02:35:31.837Z,0.93
2018-12-22T02:40:34.554Z,2.13
2018-12-22T02:45:37.542Z,2.33
2018-12-22T02:50:40.534Z,0.70
2018-12-22T02:55:43.209Z,1.43
2018-12-22T03:00:46.009Z,3.03
2018-12-22T03:05:48.868Z,0.87
2018-12-22T03:10:51.774Z,1.80
2018-12-22T03:15:54.576Z,0.50
2018-12-22T03:20:57.346Z,0.77
2018-12-22T03:26:00.271Z,1.70
2018-12-22T03:31:03.183Z,1.20
2018-12-22T03:36:06.001Z,1.10
2018-12-22T03:41:08.928Z,2.23
2018-12-22T03:46:11.697Z,0.53
2018-12-22T03:51:14.474Z,1.27
2018-12-22T03:56:17.660Z,0.47
2018-12-22T04:01:20.445Z,0.73
2018-12-22T04:06:23.328Z,1.23
2018-12-22T04:11:26.216Z,0.50
2018-12-22T04:16:28.994Z,0.50
2018-12-22T04:21:31.855Z,0.77
2018-12-22T04:26:34.701Z,0.43
2018-12-22T04:31:37.470Z,1.93
2018-12-22T04:36:40.209Z,0.97
2018-12-22T04:41:43.183Z,0.70
2018-12-22T04:46:46.146Z,1.27
2018-12-22T04:51:49.021Z,1.20
2018-12-22T04:56:51.688Z,1.00
2018-12-22T05:01:54.449Z,0.80
2018-12-22T05:06:57.279Z,0.77
2018-12-22T05:12:00.165Z,1.20
2018-12-22T05:17:02.945Z,1.57
2018-12-22T05:22:05.890Z,0.60
2018-12-22T05:27:08.646Z,1.23
2018-12-22T05:32:12.265Z,4.17
2018-12-22T05:37:15.167Z,3.20
2018-12-22T05:42:18.192Z,1.80
2018-12-22T05:47:21.068Z,2.23
2018-12-22T05:52:23.743Z,1.57
2018-12-22T05:57:26.793Z,3.70
2018-12-22T06:02:29.484Z,4.43
2018-12-22T06:07:32.247Z,3.33
2018-12-22T06:12:35.154Z,1.10
2018-12-22T06:17:37.978Z,2.70
2018-12-22T06:22:40.778Z,2.63
2018-12-22T06:27:43.653Z,2.13
2018-12-22T06:32:46.167Z,2.30
2018-12-22T06:37:49.237Z,1.87
2018-12-22T06:42:52.000Z,2.57
2018-12-22T06:47:54.881Z,2.57
2018-12-22T06:52:57.678Z,3.17
2018-12-22T06:58:00.433Z,2.87
2018-12-22T07:03:03.397Z,2.57
2018-12-22T07:08:06.333Z,2.90
2018-12-22T07:13:09.047Z,3.33
2018-12-22T07:18:11.649Z,3.63
2018-12-22T07:23:14.358Z,2.87
2018-12-22T07:28:17.037Z,4.20
2018-12-22T07:33:19.816Z,4.73
2018-12-22T07:38:22.714Z,1.97
2018-12-22T07:43:25.663Z,4.77
2018-12-22T07:48:28.393Z,5.03
2018-12-22T07:53:31.203Z,2.77
2018-12-22T07:58:33.916Z,2.13
2018-12-22T08:03:36.746Z,3.20
2018-12-22T08:08:39.612Z,4.57
2018-12-22T08:13:42.337Z,2.70
2018-12-22T08:18:45.065Z,3.90
2018-12-22T08:23:47.984Z,3.40
2018-12-22T08:28:50.848Z,2.37
2018-12-22T08:33:53.425Z,3.60
2018-12-22T08:44:12.229Z,4.08
2018-12-22T08:49:15.670Z,4.07
2018-12-22T08:54:18.602Z,3.40
2018-12-22T08:59:21.228Z,4.00
2018-12-22T09:04:24.063Z,5.47
2018-12-22T09:09:26.841Z,7.30
2018-12-22T09:14:29.769Z,6.13
2018-12-22T09:19:32.735Z,6.10
2018-12-22T09:24:35.621Z,4.50
2018-12-22T09:29:38.547Z,4.33
2018-12-22T09:34:41.271Z,5.47
2018-12-22T09:39:44.149Z,5.33
2018-12-22T09:44:47.363Z,4.73
2018-12-22T09:49:50.182Z,3.90
2018-12-22T09:54:52.813Z,4.40
2018-12-22T09:59:55.636Z,2.80
2018-12-22T10:04:58.469Z,2.93
2018-12-22T10:10:01.457Z,4.30
2018-12-22T10:15:05.969Z,2.77
2018-12-22T10:20:09.453Z,2.87
2018-12-22T10:25:12.397Z,5.53
2018-12-22T10:30:16.611Z,3.17
2018-12-22T10:35:28.068Z,2.40
2018-12-22T10:40:31.066Z,4.67
2018-12-22T10:45:33.950Z,5.03
2018-12-22T10:50:36.655Z,3.17
2018-12-22T10:55:39.633Z,2.77
2018-12-22T11:00:42.549Z,2.93
2018-12-22T11:05:45.301Z,2.47
2018-12-22T11:10:48.490Z,1.73
2018-12-22T11:15:51.492Z,1.83
2018-12-22T11:20:54.338Z,2.33
2018-12-22T11:25:57.121Z,2.70
2018-12-22T11:31:00.069Z,3.83
2018-12-22T11:36:03.136Z,3.27
2018-12-22T11:41:06.523Z,2.17
2018-12-22T11:46:10.096Z,2.80
2018-12-22T11:51:13.051Z,2.07
2018-12-22T11:56:15.960Z,2.47
2018-12-22T12:01:18.844Z,3.53
2018-12-22T12:06:21.909Z,3.77
2018-12-22T12:11:24.558Z,3.33
2018-12-22T12:16:40.112Z,3.07
2018-12-22T12:21:43.034Z,2.60
2018-12-22T12:26:45.954Z,3.90
2018-12-22T12:31:52.179Z,4.37
2018-12-22T12:36:53.614Z,3.70
2018-12-22T12:41:57.023Z,5.07
2018-12-22T12:46:59.817Z,2.70
2018-12-22T12:52:02.714Z,3.57
2018-12-22T12:57:06.125Z,9.57
2018-12-22T13:02:09.377Z,4.20
2018-12-22T13:07:12.495Z,3.70
2018-12-22T13:12:20.779Z,3.83
2018-12-22T13:17:23.477Z,5.37
2018-12-22T13:22:26.404Z,3.87
2018-12-22T13:27:29.458Z,3.50
2018-12-22T13:32:32.085Z,4.43
2018-12-22T13:37:35.060Z,4.43
2018-12-22T13:42:37.937Z,3.50
2018-12-22T13:47:41.042Z,5.13
2018-12-22T13:52:44.099Z,2.93
2018-12-22T13:57:46.856Z,3.30
2018-12-22T14:02:49.782Z,3.80
2018-12-22T14:07:52.441Z,3.77
2018-12-22T14:12:55.385Z,4.73
2018-12-22T14:18:40.080Z,7.00
2018-12-22T14:23:57.831Z,4.10
2018-12-22T14:29:00.773Z,5.80
2018-12-22T14:34:10.250Z,4.93
2018-12-22T14:39:13.150Z,3.70
2018-12-22T14:44:15.887Z,4.53
2018-12-22T14:49:18.572Z,4.53
2018-12-22T14:54:21.436Z,6.10
2018-12-22T14:59:25.696Z,5.10
2018-12-22T15:04:28.573Z,4.63
2018-12-22T15:09:31.448Z,10.23
2018-12-22T15:14:34.173Z,7.80
2018-12-22T15:19:38.760Z,5.57
2018-12-22T15:24:42.541Z,7.00
2018-12-22T15:29:45.483Z,7.40
2018-12-22T15:34:48.438Z,7.47
2018-12-22T15:39:51.300Z,7.57
2018-12-22T15:44:54.651Z,4.70
2018-12-22T15:49:57.577Z,6.33
2018-12-22T15:55:00.250Z,5.03
2018-12-22T16:00:04.727Z,3.90
2018-12-22T16:05:09.270Z,6.00
2018-12-22T16:10:13.605Z,4.40
2018-12-22T16:15:18.867Z,5.40
2018-12-22T16:20:21.905Z,4.37
2018-12-22T16:25:24.764Z,10.40
2018-12-22T16:30:35.700Z,5.07
2018-12-22T16:35:38.644Z,4.37
2018-12-22T16:40:41.597Z,5.97
2018-12-22T16:45:50.545Z,5.13
2018-12-22T16:50:53.385Z,10.47
2018-12-22T16:55:56.619Z,5.00
2018-12-22T17:02:08.994Z,6.47
2018-12-22T17:07:11.888Z,5.83
2018-12-22T17:12:14.868Z,5.03
2018-12-22T17:17:17.845Z,4.83
2018-12-22T17:22:31.773Z,4.90
2018-12-22T17:27:34.701Z,6.53
2018-12-22T17:32:39.142Z,4.83
2018-12-22T17:37:42.077Z,6.33
2018-12-22T17:42:44.949Z,6.40
2018-12-22T17:47:47.694Z,6.83
2018-12-22T17:52:50.553Z,8.10
2018-12-22T17:57:53.318Z,7.53
2018-12-22T18:02:57.194Z,7.73
2018-12-22T18:08:00.042Z,6.33
2018-12-22T18:13:03.506Z,8.37
2018-12-22T18:18:06.389Z,6.40
2018-12-22T18:23:09.234Z,6.90
2018-12-22T18:28:13.501Z,9.47
2018-12-22T18:33:16.303Z,8.37
2018-12-22T18:38:19.134Z,7.47
2018-12-22T18:43:22.094Z,10.73
2018-12-22T18:48:25.020Z,9.83
2018-12-22T18:53:27.802Z,9.57
2018-12-22T18:58:30.454Z,10.23
2018-12-22T19:03:33.711Z,13.67
2018-12-22T19:08:37.268Z,9.27
2018-12-22T19:13:40.387Z,10.77
2018-12-22T19:18:43.223Z,13.70
2018-12-22T19:23:46.068Z,9.70
2018-12-22T19:28:48.623Z,10.57
2018-12-22T19:33:53.576Z,10.47
2018-12-22T19:38:56.267Z,12.30
2018-12-22T19:43:59.015Z,12.70
2018-12-22T19:49:01.898Z,13.10
2018-12-22T19:54:04.809Z,10.30
2018-12-22T19:59:07.629Z,9.27
2018-12-22T20:04:10.535Z,12.47
2018-12-22T20:09:13.354Z,10.73
2018-12-22T20:14:15.937Z,9.77
2018-12-22T20:19:18.585Z,11.27
2018-12-22T20:24:21.289Z,12.20
2018-12-22T20:29:23.984Z,10.43
2018-12-22T20:34:26.934Z,9.80
2018-12-22T20:39:29.826Z,10.37
2018-12-22T20:44:32.642Z,12.23
2018-12-22T20:49:35.454Z,11.67
2018-12-22T20:54:38.005Z,41.63
2018-12-22T20:59:40.843Z,30.80
2018-12-22T21:04:43.761Z,17.53
2018-12-22T21:09:46.431Z,14.47
2018-12-22T21:14:49.349Z,17.20
2018-12-22T21:19:52.281Z,15.57
2018-12-22T21:24:55.172Z,13.73
2018-12-22T21:29:58.073Z,12.90
2018-12-22T21:35:00.810Z,13.40
2018-12-22T21:40:04.161Z,15.63
2018-12-22T21:45:07.097Z,15.47
2018-12-22T21:50:09.951Z,11.77
2018-12-22T21:55:12.825Z,12.73
2018-12-22T22:00:15.710Z,15.67
2018-12-22T22:05:18.564Z,15.07
2018-12-22T22:10:21.762Z,14.17
2018-12-22T22:15:25.028Z,18.23
2018-12-22T22:20:27.961Z,18.00
2018-12-22T22:25:30.809Z,16.10
2018-12-22T22:30:34.256Z,13.90
2018-12-22T22:35:37.109Z,13.30
2018-12-22T22:40:39.858Z,16.10
2018-12-22T22:45:42.653Z,16.67
2018-12-22T22:50:45.443Z,14.80
2018-12-22T22:55:48.349Z,17.13
2018-12-22T23:00:51.248Z,17.20
2018-12-22T23:05:55.155Z,15.50
2018-12-22T23:10:57.994Z,14.70
2018-12-22T23:16:01.035Z,17.33
2018-12-22T23:21:03.889Z,16.33
2018-12-22T23:26:06.837Z,17.63
2018-12-22T23:31:09.705Z,13.77
2018-12-22T23:36:12.352Z,22.30
2018-12-22T23:41:15.154Z,15.00
2018-12-22T23:46:17.973Z,10.53
2018-12-22T23:51:20.720Z,12.47
2018-12-22T23:56:23.630Z,12.30
